Time;durP1;ratioP1;P1;durP2;ratioP2;P2;SDS_P1;SDS_P2;PMS_P1;PMS_P2;Temp;Humidity;BMP_temperature;BMP_pressure;BME280_temperature;BME280_humidity;BME280_pressure;Samples;Min_cycle;Max_cycle;Signal;HPM_P1;HPM_P2
2023/10/12 00:01:58;;;;;;;11.38;5.25;;;;;;;;;;6128315;23;20629;-85
2023/10/12 00:04:28;;;;;;;15.07;6.82;;;;;;;;;;6104112;23;20017;-85
2023/10/12 00:06:55;;;;;;;7.32;6.55;;;;;;;;;;6104589;23;20017;-85
2023/10/12 00:09:27;;;;;;;11.02;8.13;;;;;;;;;;6129215;23;20040;-85
2023/10/12 02:42:03;;;;;;;7.22;6.22;;;;;;;;;;6143609;23;20014;-81
2023/10/12 02:44:34;;;;;;;5.85;5.25;;;;;;;;;;6143261;23;20014;-81
2023/10/12 02:47:12;;;;;;;10.40;5.80;;;;;;;;;;6107679;23;20032;-82
2023/10/12 02:49:40;;;;;;;7.25;6.53;;;;;;;;;;6107089;23;20018;-82
2023/10/12 02:52:08;;;;;;;10.50;5.28;;;;;;;;;;6107070;23;20465;-82
2023/10/12 02:54:49;;;;;;;5.95;4.70;;;;;;;;;;6141238;23;20434;-81
2023/10/12 02:57:23;;;;;;;8.35;5.07;;;;;;;;;;6106323;23;20018;-81
2023/10/12 02:59:57;;;;;;;9.13;4.57;;;;;;;;;;6142203;23;20010;-81
2023/10/12 03:02:32;;;;;;;6.93;5.88;;;;;;;;;;6107847;23;20485;-81
2023/10/12 03:05:01;;;;;;;7.72;5.53;;;;;;;;;;6132586;23;20022;-81
2023/10/12 03:07:28;;;;;;;7.13;5.28;;;;;;;;;;6108090;23;20018;-82
2023/10/12 03:09:58;;;;;;;7.63;6.32;;;;;;;;;;6132369;23;20014;-81
2023/10/12 03:12:34;;;;;;;9.63;5.07;;;;;;;;;;6107369;23;20024;-82
2023/10/12 03:15:11;;;;;;;8.10;5.75;;;;;;;;;;6141864;23;20028;-82
2023/10/12 03:17:45;;;;;;;8.48;5.80;;;;;;;;;;6107328;23;20022;-82
2023/10/12 03:20:22;;;;;;;6.82;5.80;;;;;;;;;;6106989;23;20022;-82
2023/10/12 03:22:52;;;;;;;8.18;5.35;;;;;;;;;;6108015;23;20050;-81
2023/10/12 03:25:20;;;;;;;10.43;6.18;;;;;;;;;;6108049;23;20028;-82
2023/10/12 03:27:52;;;;;;;5.63;4.40;;;;;;;;;;6107095;23;20026;-82
2023/10/12 03:30:25;;;;;;;6.45;5.22;;;;;;;;;;6141174;23;20018;-82
2023/10/12 03:32:52;;;;;;;5.72;5.15;;;;;;;;;;6132064;23;20019;-82
2023/10/12 03:35:26;;;;;;;7.50;5.50;;;;;;;;;;6131002;23;20024;-81
2023/10/12 03:38:01;;;;;;;7.85;4.90;;;;;;;;;;6107140;23;20037;-82
2023/10/12 03:43:25;;;;;;;5.55;4.85;;;;;;;;;;6049555;23;20020;-82
2023/10/12 03:46:08;;;;;;;8.85;5.47;;;;;;;;;;6108385;23;20034;-82
2023/10/12 03:48:51;;;;;;;8.15;5.20;;;;;;;;;;6107859;23;20032;-82
2023/10/12 03:51:26;;;;;;;9.05;5.53;;;;;;;;;;6131085;23;20021;-81
2023/10/12 03:54:11;;;;;;;7.63;6.68;;;;;;;;;;6131424;23;20020;-81
2023/10/12 03:56:40;;;;;;;7.32;5.80;;;;;;;;;;6131384;23;20028;-82
2023/10/12 03:59:10;;;;;;;8.20;6.53;;;;;;;;;;6130655;23;20052;-82
2023/10/12 04:01:41;;;;;;;8.57;6.55;;;;;;;;;;6138995;23;20018;-82
2023/10/12 04:04:16;;;;;;;8.48;7.10;;;;;;;;;;6102580;23;20022;-82
2023/10/12 04:09:39;;;;;;;7.40;6.53;;;;;;;;;;6118672;23;20028;-81
2023/10/12 04:12:18;;;;;;;6.80;4.82;;;;;;;;;;6138833;23;20018;-81
2023/10/12 04:14:53;;;;;;;6.53;5.68;;;;;;;;;;6104729;23;20018;-82
2023/10/12 04:17:39;;;;;;;10.88;6.40;;;;;;;;;;6135305;23;20018;-82
2023/10/12 04:20:16;;;;;;;6.70;5.97;;;;;;;;;;6141998;23;20018;-82
2023/10/12 04:25:34;;;;;;;12.85;6.82;;;;;;;;;;6130051;23;20022;-82
2023/10/12 04:28:17;;;;;;;10.10;7.13;;;;;;;;;;6140853;23;20036;-82
2023/10/12 04:33:43;;;;;;;10.82;6.68;;;;;;;;;;6131643;23;20020;-82
2023/10/12 04:36:25;;;;;;;5.88;5.20;;;;;;;;;;6139801;23;20024;-82
2023/10/12 04:38:58;;;;;;;7.75;5.55;;;;;;;;;;6142194;23;20025;-81
2023/10/12 04:41:38;;;;;;;8.60;6.03;;;;;;;;;;6106913;23;20022;-80
2023/10/12 04:46:58;;;;;;;7.00;6.13;;;;;;;;;;6141974;23;20021;-79
2023/10/12 04:52:17;;;;;;;15.05;7.43;;;;;;;;;;6159633;23;20016;-81
2023/10/12 04:57:32;;;;;;;11.30;6.57;;;;;;;;;;6134494;23;20018;-82
2023/10/12 05:00:16;;;;;;;14.40;5.70;;;;;;;;;;6141251;23;20028;-82
2023/10/12 05:02:59;;;;;;;;;;;;;;;;;;6125251;23;20037;-82
2023/10/12 05:08:11;;;;;;;8.80;6.60;;;;;;;;;;6125067;23;20021;-82
2023/10/12 05:10:50;;;;;;;8.55;6.85;;;;;;;;;;6118278;23;20026;-82
2023/10/12 05:13:20;;;;;;;10.40;7.45;;;;;;;;;;6107075;23;20018;-82
2023/10/12 05:15:54;;;;;;;7.95;7.15;;;;;;;;;;6133519;23;20015;-82
2023/10/12 05:18:24;;;;;;;9.10;6.78;;;;;;;;;;6107490;23;20470;-82
2023/10/12 05:20:52;;;;;;;9.48;6.28;;;;;;;;;;6131144;23;20018;-82
2023/10/12 05:23:20;;;;;;;11.30;6.05;;;;;;;;;;6107436;23;20022;-82
2023/10/12 05:26:07;;;;;;;7.00;6.30;;;;;;;;;;6106744;23;20022;-82
2023/10/12 05:31:28;;;;;;;7.97;6.82;;;;;;;;;;6093776;23;20025;-81
2023/10/12 05:34:25;;;;;;;11.32;7.93;;;;;;;;;;6106944;23;20018;-82
2023/10/12 05:36:51;;;;;;;7.85;6.68;;;;;;;;;;6131020;23;20026;-82
2023/10/12 05:39:18;;;;;;;8.70;7.15;;;;;;;;;;6134218;23;20022;-82
2023/10/12 05:41:47;;;;;;;9.07;7.20;;;;;;;;;;6133471;23;20018;-82
2023/10/12 05:44:26;;;;;;;7.45;6.32;;;;;;;;;;6133608;23;20016;-82
2023/10/12 05:46:59;;;;;;;9.05;6.88;;;;;;;;;;6135591;23;20018;-82
2023/10/12 05:49:33;;;;;;;11.35;6.93;;;;;;;;;;6143785;23;20032;-82
2023/10/12 05:52:04;;;;;;;11.15;8.63;;;;;;;;;;6142198;23;20040;-82
2023/10/12 05:54:31;;;;;;;9.73;7.60;;;;;;;;;;6131128;23;20025;-82
2023/10/12 05:57:04;;;;;;;11.82;8.40;;;;;;;;;;6131493;23;20018;-82
2023/10/12 05:59:34;;;;;;;9.13;7.80;;;;;;;;;;6143165;23;20028;-82
2023/10/12 06:02:04;;;;;;;8.85;7.40;;;;;;;;;;6131487;23;20018;-82
2023/10/12 06:04:32;;;;;;;14.50;8.60;;;;;;;;;;6133522;23;20010;-82
2023/10/12 06:07:03;;;;;;;8.70;7.05;;;;;;;;;;6137128;23;20442;-82
2023/10/12 06:09:35;;;;;;;10.43;7.60;;;;;;;;;;6131147;23;20032;-82
2023/10/12 06:12:06;;;;;;;10.07;8.02;;;;;;;;;;6107930;23;20025;-82
2023/10/12 06:14:33;;;;;;;10.43;7.25;;;;;;;;;;6130586;23;20458;-82
2023/10/12 06:17:02;;;;;;;10.77;7.30;;;;;;;;;;6132028;23;20014;-82
2023/10/12 06:19:34;;;;;;;9.63;8.23;;;;;;;;;;6133631;23;20018;-82
2023/10/12 06:22:19;;;;;;;9.95;8.35;;;;;;;;;;6142612;23;20010;-82
2023/10/12 06:24:49;;;;;;;11.95;8.98;;;;;;;;;;6141691;23;20014;-82
2023/10/12 06:27:25;;;;;;;10.98;8.73;;;;;;;;;;6134015;23;20024;-82
2023/10/12 06:29:53;;;;;;;;;;;;;;;;;;6144042;23;20346;-82
2023/10/12 06:32:25;;;;;;;13.10;8.43;;;;;;;;;;6133133;23;20161;-82
2023/10/12 06:35:04;;;;;;;10.95;8.65;;;;;;;;;;6142090;23;20014;-82
2023/10/12 06:40:47;;;;;;;9.50;6.72;;;;;;;;;;5135112;27;20414;-80
2023/10/12 06:46:03;;;;;;;9.38;6.60;;;;;;;;;;5107445;28;20044;-80
2023/10/12 06:48:46;;;;;;;11.50;7.50;;;;;;;;;;5077302;28;20493;-80
2023/10/12 06:51:15;;;;;;;10.77;7.72;;;;;;;;;;5077366;28;20044;-80
2023/10/12 06:53:44;;;;;;;9.43;7.13;;;;;;;;;;5079299;28;20070;-80
2023/10/12 06:56:24;;;;;;;11.18;7.57;;;;;;;;;;5082723;28;20048;-80
2023/10/12 07:01:38;;;;;;;11.27;8.25;;;;;;;;;;5080663;28;20052;-80
2023/10/12 07:04:12;;;;;;;10.27;6.93;;;;;;;;;;5072056;28;20047;-80
2023/10/12 07:06:40;;;;;;;10.73;8.85;;;;;;;;;;5080498;28;20052;-80
2023/10/12 07:09:08;;;;;;;11.40;8.02;;;;;;;;;;5102000;28;20044;-80
2023/10/12 07:11:39;;;;;;;10.45;7.07;;;;;;;;;;5079124;28;20512;-80
2023/10/12 07:14:07;;;;;;;14.38;7.57;;;;;;;;;;5077465;28;20048;-80
2023/10/12 07:16:52;;;;;;;19.98;8.07;;;;;;;;;;5078628;28;20043;-80
2023/10/12 07:19:22;;;;;;;9.65;7.13;;;;;;;;;;5096600;28;20044;-80
2023/10/12 07:21:53;;;;;;;8.52;7.72;;;;;;;;;;5093895;28;20048;-82
2023/10/12 07:24:22;;;;;;;8.85;6.70;;;;;;;;;;5113279;28;20055;-82
2023/10/12 07:26:51;;;;;;;17.30;8.23;;;;;;;;;;5094152;28;20044;-83
2023/10/12 07:29:35;;;;;;;10.48;7.68;;;;;;;;;;5074119;28;20051;-83
2023/10/12 07:32:08;;;;;;;13.57;8.27;;;;;;;;;;5082391;28;20075;-83
2023/10/12 07:34:35;;;;;;;17.90;8.90;;;;;;;;;;5101964;28;20055;-83
2023/10/12 07:37:02;;;;;;;12.00;7.53;;;;;;;;;;5098182;28;20066;-83
2023/10/12 07:39:42;;;;;;;10.23;8.18;;;;;;;;;;5100699;28;20059;-83
2023/10/12 07:42:14;;;;;;;13.40;8.75;;;;;;;;;;5094802;28;20048;-83
2023/10/12 07:44:53;;;;;;;18.42;8.63;;;;;;;;;;5099128;28;20048;-83
2023/10/12 10:06:45;;;;;;;9.00;4.55;;;;;;;;;;5645672;22;20501;-81
2023/10/12 10:09:41;;;;;;;12.00;4.22;;;;;;;;;;5038324;28;20044;-82
2023/10/12 10:13:14;;;;;;;6.65;4.95;;;;;;;;;;5061231;28;20052;-82
2023/10/12 10:15:56;;;;;;;7.65;4.93;;;;;;;;;;4991347;28;20055;-81
2023/10/12 10:19:16;;;;;;;10.35;4.35;;;;;;;;;;4974587;28;20485;-82
2023/10/12 10:22:21;;;;;;;7.03;3.92;;;;;;;;;;4975792;28;20046;-82
2023/10/12 13:25:36;;;;;;;8.50;5.88;;;;;;;;;;4881802;28;20057;-82
2023/10/12 13:28:03;;;;;;;8.48;5.30;;;;;;;;;;5025776;28;20063;-82
2023/10/12 13:30:33;;;;;;;8.05;5.80;;;;;;;;;;5050720;28;20059;-82
2023/10/12 13:33:00;;;;;;;6.18;5.57;;;;;;;;;;5058990;28;20402;-82
2023/10/12 13:35:37;;;;;;;7.90;5.57;;;;;;;;;;5081994;28;20083;-82
2023/10/12 13:38:05;;;;;;;9.40;5.97;;;;;;;;;;5062543;28;20595;-82
2023/10/12 13:40:36;;;;;;;10.00;6.80;;;;;;;;;;5057604;28;20044;-82
2023/10/12 13:43:14;;;;;;;10.57;6.90;;;;;;;;;;5064583;28;20059;-82
2023/10/12 13:45:47;;;;;;;11.63;7.45;;;;;;;;;;5099290;28;20052;-82
2023/10/12 13:48:20;;;;;;;12.55;6.90;;;;;;;;;;5047776;22;20060;-85
2023/10/12 13:50:59;;;;;;;9.50;6.28;;;;;;;;;;5013269;28;20425;-84
2023/10/12 13:53:26;;;;;;;12.32;7.78;;;;;;;;;;5018458;28;20041;-84
2023/10/12 13:55:57;;;;;;;8.68;7.25;;;;;;;;;;5032087;28;20040;-84
2023/10/12 13:58:32;;;;;;;9.68;6.78;;;;;;;;;;5048577;28;20561;-85
2023/10/12 14:01:04;;;;;;;8.95;6.43;;;;;;;;;;5029983;28;20052;-85
2023/10/12 14:03:35;;;;;;;10.32;6.95;;;;;;;;;;5055690;28;20068;-84
2023/10/12 14:06:06;;;;;;;8.80;6.82;;;;;;;;;;5047896;28;20053;-84
2023/10/12 14:08:35;;;;;;;9.80;5.70;;;;;;;;;;5035482;28;20041;-85
2023/10/12 14:11:06;;;;;;;9.73;7.00;;;;;;;;;;5009004;28;20052;-84
2023/10/12 14:13:34;;;;;;;8.95;6.97;;;;;;;;;;5012187;28;20041;-85
2023/10/12 14:16:01;;;;;;;19.38;6.70;;;;;;;;;;5029055;28;20053;-84
2023/10/12 14:18:30;;;;;;;10.05;6.53;;;;;;;;;;5018683;28;20045;-84
2023/10/12 14:21:00;;;;;;;9.63;6.60;;;;;;;;;;5045406;28;20056;-84
2023/10/12 14:23:29;;;;;;;8.15;5.78;;;;;;;;;;5049913;28;20053;-84
2023/10/12 14:26:00;;;;;;;11.30;7.47;;;;;;;;;;5012929;28;20057;-84
2023/10/12 14:28:35;;;;;;;;;;;;;;;;;;5016158;28;20545;-84
2023/10/12 14:31:06;;;;;;;10.20;7.25;;;;;;;;;;5015015;28;19920;-84
2023/10/12 14:33:37;;;;;;;11.48;7.25;;;;;;;;;;5045884;28;20048;-84
2023/10/12 14:36:06;;;;;;;12.77;6.88;;;;;;;;;;5028803;28;20056;-84
2023/10/12 14:38:41;;;;;;;16.77;7.65;;;;;;;;;;5032530;28;20056;-84
2023/10/12 14:41:16;;;;;;;9.05;7.13;;;;;;;;;;5031045;28;20395;-84
2023/10/12 14:43:48;;;;;;;11.18;6.10;;;;;;;;;;5029074;28;20056;-84
2023/10/12 14:46:19;;;;;;;8.88;6.85;;;;;;;;;;5027712;28;20072;-84
2023/10/12 14:48:49;;;;;;;10.10;6.80;;;;;;;;;;5034728;28;20049;-84
2023/10/12 14:51:17;;;;;;;8.35;6.22;;;;;;;;;;5046540;28;20049;-84
2023/10/12 14:53:45;;;;;;;8.75;6.80;;;;;;;;;;5010452;28;20055;-84
2023/10/12 14:56:15;;;;;;;12.27;7.25;;;;;;;;;;5024694;28;20056;-84
2023/10/12 14:58:43;;;;;;;13.02;6.75;;;;;;;;;;5029183;28;20048;-84
2023/10/12 15:01:13;;;;;;;11.75;8.30;;;;;;;;;;5034042;28;20128;-84
2023/10/12 15:03:45;;;;;;;12.95;7.57;;;;;;;;;;5052430;28;20060;-84
2023/10/12 15:06:16;;;;;;;9.35;7.70;;;;;;;;;;5050816;28;20163;-84
2023/10/12 15:08:44;;;;;;;8.88;7.78;;;;;;;;;;5051030;28;20387;-84
2023/10/12 15:11:17;;;;;;;12.30;7.90;;;;;;;;;;5053818;28;20045;-83
2023/10/12 15:13:45;;;;;;;17.17;8.40;;;;;;;;;;5036137;28;20051;-84
2023/10/12 15:16:13;;;;;;;10.25;6.43;;;;;;;;;;5030996;28;20049;-86
2023/10/12 15:18:41;;;;;;;10.98;8.20;;;;;;;;;;5036262;28;20041;-85
2023/10/12 15:21:12;;;;;;;8.18;6.32;;;;;;;;;;5036325;28;20056;-85
2023/10/12 15:23:43;;;;;;;12.00;6.97;;;;;;;;;;5032439;28;20041;-85
2023/10/12 15:26:16;;;;;;;10.23;7.68;;;;;;;;;;5047817;28;20045;-85
2023/10/12 15:28:47;;;;;;;9.18;7.15;;;;;;;;;;5053052;28;20049;-85
2023/10/12 15:31:22;;;;;;;9.15;7.05;;;;;;;;;;5052960;28;20442;-85
2023/10/12 15:33:50;;;;;;;8.03;7.13;;;;;;;;;;5036312;28;20053;-85
2023/10/12 15:36:17;;;;;;;7.00;6.15;;;;;;;;;;5017918;28;20307;-85
2023/10/12 15:38:45;;;;;;;7.88;6.78;;;;;;;;;;5035558;28;20402;-85
2023/10/12 15:41:15;;;;;;;12.98;7.97;;;;;;;;;;5036418;28;20407;-85
2023/10/12 15:43:45;;;;;;;12.90;7.93;;;;;;;;;;5041869;28;20065;-85
2023/10/12 15:46:12;;;;;;;11.27;8.43;;;;;;;;;;5019396;28;20045;-85
2023/10/12 15:48:41;;;;;;;11.27;6.50;;;;;;;;;;5035835;28;20487;-85
2023/10/12 15:51:16;;;;;;;10.45;6.82;;;;;;;;;;5036105;28;20045;-85
2023/10/12 15:53:43;;;;;;;8.75;5.95;;;;;;;;;;5019563;28;20056;-85
2023/10/12 15:56:15;;;;;;;9.40;7.40;;;;;;;;;;5054153;28;20053;-85
2023/10/12 15:58:45;;;;;;;8.45;7.18;;;;;;;;;;5034674;28;20056;-85
2023/10/12 16:01:17;;;;;;;9.70;7.00;;;;;;;;;;5039354;28;20530;-85
2023/10/12 16:03:44;;;;;;;10.15;8.18;;;;;;;;;;5036063;28;20053;-85
2023/10/12 16:06:14;;;;;;;8.88;7.68;;;;;;;;;;5023622;28;20060;-85
2023/10/12 16:08:44;;;;;;;10.95;7.53;;;;;;;;;;5036358;28;20040;-85
2023/10/12 16:11:17;;;;;;;9.85;8.90;;;;;;;;;;5053570;28;20045;-85
2023/10/12 16:13:45;;;;;;;8.98;7.32;;;;;;;;;;5018942;28;20502;-85
2023/10/12 16:16:13;;;;;;;13.45;8.65;;;;;;;;;;5052330;28;20056;-85
2023/10/12 16:18:43;;;;;;;10.80;7.88;;;;;;;;;;5024987;28;20398;-85
2023/10/12 16:21:15;;;;;;;11.43;8.75;;;;;;;;;;5019070;28;20053;-85
2023/10/12 16:23:46;;;;;;;15.52;8.27;;;;;;;;;;5051873;28;20052;-85
2023/10/12 16:26:17;;;;;;;9.30;8.20;;;;;;;;;;5034532;28;20045;-85
2023/10/12 16:28:46;;;;;;;12.40;8.15;;;;;;;;;;5053209;28;20399;-84
2023/10/12 16:31:13;;;;;;;10.05;8.07;;;;;;;;;;5035307;28;20056;-84
2023/10/12 16:33:41;;;;;;;9.82;7.85;;;;;;;;;;5035835;28;20037;-85
2023/10/12 16:36:10;;;;;;;17.38;8.15;;;;;;;;;;5034648;28;20053;-85
2023/10/12 16:38:38;;;;;;;14.07;8.27;;;;;;;;;;5034023;28;20056;-85
2023/10/12 16:41:07;;;;;;;17.25;9.38;;;;;;;;;;5053032;28;20045;-85
2023/10/12 16:43:36;;;;;;;10.85;9.05;;;;;;;;;;5052114;28;20044;-85
2023/10/12 16:46:16;;;;;;;10.50;8.88;;;;;;;;;;5030077;28;20140;-84
2023/10/12 16:48:43;;;;;;;12.40;9.88;;;;;;;;;;5043801;28;20068;-85
2023/10/12 16:51:14;;;;;;;10.68;8.63;;;;;;;;;;5035557;28;20053;-85
2023/10/12 16:53:42;;;;;;;15.25;8.40;;;;;;;;;;5044597;28;20044;-84
2023/10/12 16:56:12;;;;;;;13.98;8.88;;;;;;;;;;5034218;28;20064;-85
2023/10/12 16:58:41;;;;;;;13.40;9.77;;;;;;;;;;5018183;28;20423;-85
2023/10/12 17:01:13;;;;;;;10.30;8.57;;;;;;;;;;5034922;28;20041;-85
2023/10/12 17:03:47;;;;;;;10.60;9.25;;;;;;;;;;5034904;28;20063;-85
2023/10/12 17:06:16;;;;;;;19.13;10.77;;;;;;;;;;5032900;28;20507;-85
2023/10/12 17:08:47;;;;;;;12.70;10.23;;;;;;;;;;5045261;28;20506;-85
2023/10/12 17:11:15;;;;;;;15.73;9.43;;;;;;;;;;5052500;28;20053;-85
2023/10/12 17:13:43;;;;;;;16.50;10.00;;;;;;;;;;5017605;28;20044;-85
2023/10/12 17:16:11;;;;;;;12.40;9.90;;;;;;;;;;5052400;28;20051;-85
2023/10/12 17:18:41;;;;;;;10.00;8.68;;;;;;;;;;5033542;28;20052;-85
2023/10/12 17:21:12;;;;;;;10.52;8.65;;;;;;;;;;5051646;28;20045;-85
2023/10/12 17:23:39;;;;;;;9.88;8.80;;;;;;;;;;5035055;28;20053;-85
2023/10/12 17:26:06;;;;;;;11.20;8.32;;;;;;;;;;5052845;28;20053;-85
2023/10/12 17:28:35;;;;;;;15.32;8.93;;;;;;;;;;5016188;28;20064;-85
2023/10/12 17:31:06;;;;;;;13.00;9.25;;;;;;;;;;5034222;28;20049;-85
2023/10/12 17:33:34;;;;;;;10.88;9.68;;;;;;;;;;5051936;28;20045;-85
2023/10/12 17:36:03;;;;;;;10.63;9.60;;;;;;;;;;5017720;28;20048;-85
2023/10/12 17:38:32;;;;;;;12.68;10.18;;;;;;;;;;5048994;28;20061;-85
2023/10/12 17:41:02;;;;;;;13.00;11.68;;;;;;;;;;5033917;28;20522;-84
2023/10/12 17:43:30;;;;;;;14.38;10.75;;;;;;;;;;5017560;28;20049;-85
2023/10/12 17:46:01;;;;;;;10.85;9.48;;;;;;;;;;5033838;28;20051;-85
2023/10/12 17:48:31;;;;;;;10.65;8.95;;;;;;;;;;5028113;28;20045;-85
2023/10/12 17:50:58;;;;;;;15.23;10.05;;;;;;;;;;5032545;28;20059;-85
2023/10/12 17:53:29;;;;;;;10.38;9.07;;;;;;;;;;5050950;28;20045;-85
2023/10/12 17:55:56;;;;;;;17.00;10.25;;;;;;;;;;4999450;28;20045;-85
2023/10/12 17:58:24;;;;;;;10.75;8.55;;;;;;;;;;5034710;28;20064;-85
2023/10/12 18:00:51;;;;;;;18.08;10.75;;;;;;;;;;5035296;28;20045;-85
2023/10/12 18:03:20;;;;;;;11.63;10.43;;;;;;;;;;5013050;28;20136;-85
2023/10/12 18:05:56;;;;;;;15.93;11.77;;;;;;;;;;5032680;28;20055;-85
2023/10/12 18:08:23;;;;;;;14.50;11.43;;;;;;;;;;5033519;28;20422;-85
2023/10/12 18:10:50;;;;;;;14.40;10.65;;;;;;;;;;5049323;28;20394;-85
2023/10/12 18:13:20;;;;;;;15.15;10.40;;;;;;;;;;5032614;28;20052;-85
2023/10/12 18:15:57;;;;;;;12.02;9.88;;;;;;;;;;5019451;28;20053;-85
2023/10/12 18:18:27;;;;;;;12.15;9.75;;;;;;;;;;5035691;28;20060;-85
2023/10/12 18:20:58;;;;;;;12.07;9.07;;;;;;;;;;5033481;28;20502;-85
2023/10/12 18:23:25;;;;;;;13.65;10.10;;;;;;;;;;5049639;28;20509;-85
2023/10/12 18:25:52;;;;;;;12.90;10.38;;;;;;;;;;5033456;28;20534;-84
2023/10/12 18:28:20;;;;;;;15.38;9.57;;;;;;;;;;5017067;28;20060;-85
2023/10/12 18:30:57;;;;;;;10.65;9.55;;;;;;;;;;5016146;28;20053;-85
2023/10/12 18:33:25;;;;;;;11.55;10.40;;;;;;;;;;5033523;28;20052;-85
2023/10/12 18:35:56;;;;;;;12.18;9.80;;;;;;;;;;5024741;28;20083;-84
2023/10/12 18:38:23;;;;;;;14.52;10.10;;;;;;;;;;5033230;28;20060;-85
2023/10/12 18:40:51;;;;;;;9.07;7.50;;;;;;;;;;5016423;28;20418;-85
2023/10/12 18:43:21;;;;;;;12.05;8.57;;;;;;;;;;5016279;28;20045;-84
2023/10/12 18:45:52;;;;;;;9.77;8.77;;;;;;;;;;5032919;28;20136;-84
2023/10/12 18:48:25;;;;;;;11.38;9.40;;;;;;;;;;5015958;28;20079;-85
2023/10/12 18:51:01;;;;;;;12.57;9.27;;;;;;;;;;5024464;28;20506;-85
2023/10/12 18:53:29;;;;;;;11.05;8.38;;;;;;;;;;5050624;28;20044;-85
2023/10/12 18:56:01;;;;;;;10.25;8.90;;;;;;;;;;5016526;28;20045;-85
2023/10/12 18:58:34;;;;;;;9.35;7.50;;;;;;;;;;5017041;28;20060;-85
2023/10/12 19:01:04;;;;;;;;;;;;;;;;;;5032262;28;20056;-85
2023/10/12 19:03:34;;;;;;;10.07;9.05;;;;;;;;;;5048880;28;19944;-85
2023/10/12 19:06:07;;;;;;;10.05;8.23;;;;;;;;;;5033272;28;20049;-85
2023/10/12 19:08:34;;;;;;;15.23;10.77;;;;;;;;;;5018252;28;20052;-85
2023/10/12 19:11:07;;;;;;;9.95;8.38;;;;;;;;;;5033319;28;20045;-85
2023/10/12 19:13:37;;;;;;;13.85;8.60;;;;;;;;;;5015189;28;20403;-85
2023/10/12 19:16:04;;;;;;;13.20;9.88;;;;;;;;;;5031183;28;20052;-85
2023/10/12 19:18:32;;;;;;;12.57;11.27;;;;;;;;;;5032164;28;20059;-85
2023/10/12 19:20:59;;;;;;;13.23;10.50;;;;;;;;;;5015118;28;20059;-85
2023/10/12 19:23:28;;;;;;;16.08;11.63;;;;;;;;;;5031204;28;20411;-85
2023/10/12 19:26:00;;;;;;;;;;;;;;;;;;5049546;28;20060;-85
2023/10/12 19:28:34;;;;;;;13.75;11.30;;;;;;;;;;5015963;28;19925;-85
2023/10/12 19:31:06;;;;;;;14.02;11.65;;;;;;;;;;5050709;28;20056;-85
2023/10/12 19:33:34;;;;;;;16.77;12.43;;;;;;;;;;5049351;28;20048;-85
2023/10/12 19:36:04;;;;;;;11.48;10.18;;;;;;;;;;5040948;28;20067;-85
2023/10/12 19:38:38;;;;;;;17.80;12.55;;;;;;;;;;5015325;28;20052;-85
2023/10/12 19:41:09;;;;;;;13.43;11.10;;;;;;;;;;5031836;28;20053;-84
2023/10/12 19:43:37;;;;;;;12.95;9.35;;;;;;;;;;5031014;28;20056;-85
2023/10/12 19:46:19;;;;;;;15.30;9.98;;;;;;;;;;5046270;28;20056;-85
2023/10/12 19:48:49;;;;;;;16.83;10.95;;;;;;;;;;5013532;28;20050;-90
2023/10/12 19:51:16;;;;;;;12.20;10.80;;;;;;;;;;5033523;28;20061;-89
2023/10/12 19:53:46;;;;;;;18.92;12.35;;;;;;;;;;5033061;28;20045;-89
2023/10/12 19:56:15;;;;;;;11.55;10.40;;;;;;;;;;5021387;28;20056;-89
2023/10/12 19:58:47;;;;;;;11.95;10.73;;;;;;;;;;5020162;28;20503;-89
2023/10/12 20:01:20;;;;;;;11.68;10.05;;;;;;;;;;5033836;28;20087;-89
2023/10/12 20:03:49;;;;;;;12.52;10.45;;;;;;;;;;5034780;28;20048;-89
2023/10/12 20:06:16;;;;;;;12.93;10.13;;;;;;;;;;5045519;28;20053;-89
2023/10/12 20:08:48;;;;;;;17.92;10.50;;;;;;;;;;5019665;28;20056;-89
2023/10/12 20:11:16;;;;;;;9.30;8.32;;;;;;;;;;5054142;28;20045;-89
2023/10/12 20:13:47;;;;;;;12.68;10.05;;;;;;;;;;5018933;28;20053;-89
2023/10/12 20:16:20;;;;;;;11.30;9.82;;;;;;;;;;5054000;28;20045;-89
2023/10/12 20:18:50;;;;;;;14.38;10.25;;;;;;;;;;5053867;28;20407;-89
2023/10/12 20:21:19;;;;;;;13.93;10.30;;;;;;;;;;5019953;28;20410;-89
2023/10/12 20:23:48;;;;;;;8.98;7.72;;;;;;;;;;5053582;28;20054;-89
2023/10/12 20:26:17;;;;;;;14.13;9.63;;;;;;;;;;5019221;28;20048;-89
2023/10/12 20:28:47;;;;;;;11.73;8.82;;;;;;;;;;5033777;28;20415;-89
2023/10/12 20:31:14;;;;;;;11.40;9.57;;;;;;;;;;5035734;28;20049;-89
2023/10/12 20:33:47;;;;;;;11.40;9.35;;;;;;;;;;5035450;28;20060;-89
2023/10/12 20:36:15;;;;;;;11.00;7.70;;;;;;;;;;5053459;28;20053;-89
2023/10/12 20:38:49;;;;;;;18.02;8.35;;;;;;;;;;5019496;28;20052;-89
2023/10/12 20:41:20;;;;;;;10.45;9.02;;;;;;;;;;5057363;28;20056;-89
2023/10/12 20:43:47;;;;;;;9.82;8.27;;;;;;;;;;5034916;28;20079;-89
2023/10/12 20:46:16;;;;;;;9.55;8.25;;;;;;;;;;5019095;28;20056;-89
2023/10/12 20:48:45;;;;;;;11.73;8.93;;;;;;;;;;5018765;28;20056;-89
2023/10/12 20:51:14;;;;;;;10.30;8.07;;;;;;;;;;5018853;28;20415;-89
2023/10/12 20:53:42;;;;;;;15.15;7.97;;;;;;;;;;5018609;28;20072;-90
2023/10/12 20:56:26;;;;;;;10.88;9.00;;;;;;;;;;5035124;28;20049;-89
2023/10/12 20:59:09;;;;;;;8.20;7.35;;;;;;;;;;5053087;28;20372;-89
2023/10/12 21:01:46;;;;;;;10.07;7.65;;;;;;;;;;5035098;28;20052;-89
2023/10/12 21:04:15;;;;;;;9.75;8.25;;;;;;;;;;5007841;28;20049;-89
2023/10/12 21:06:42;;;;;;;11.93;8.88;;;;;;;;;;5034718;28;20506;-89
2023/10/12 21:09:13;;;;;;;11.40;8.80;;;;;;;;;;5051432;28;20403;-89
2023/10/12 21:11:46;;;;;;;10.55;8.38;;;;;;;;;;5048963;28;20052;-89
2023/10/12 21:14:20;;;;;;;15.32;9.00;;;;;;;;;;5016347;28;20056;-88
2023/10/12 21:16:53;;;;;;;10.05;8.38;;;;;;;;;;5048650;28;20044;-88
2023/10/12 21:19:24;;;;;;;12.80;7.93;;;;;;;;;;5044120;28;20060;-88
2023/10/12 21:21:54;;;;;;;8.13;7.30;;;;;;;;;;5044307;28;20050;-89
2023/10/12 21:24:22;;;;;;;10.73;8.23;;;;;;;;;;5004820;28;20060;-88
2023/10/12 21:26:55;;;;;;;11.70;8.40;;;;;;;;;;5024096;28;20053;-88
2023/10/12 21:29:32;;;;;;;10.05;8.43;;;;;;;;;;5025216;28;20058;-88
2023/10/12 21:32:03;;;;;;;8.95;7.38;;;;;;;;;;5029934;28;20045;-89
2023/10/12 21:34:31;;;;;;;11.55;8.80;;;;;;;;;;5029730;28;20052;-89
2023/10/12 21:37:00;;;;;;;8.80;7.40;;;;;;;;;;5044952;28;20499;-89
2023/10/12 21:39:35;;;;;;;13.48;9.32;;;;;;;;;;5014513;28;20131;-89
2023/10/12 21:42:09;;;;;;;9.38;8.40;;;;;;;;;;5049053;28;20060;-88
2023/10/12 21:44:39;;;;;;;12.65;8.02;;;;;;;;;;5049905;28;20045;-88
2023/10/12 21:47:09;;;;;;;7.93;6.43;;;;;;;;;;5015428;28;20053;-88
2023/10/12 21:49:36;;;;;;;10.48;7.70;;;;;;;;;;5017010;28;20045;-89
2023/10/12 21:52:05;;;;;;;15.13;7.95;;;;;;;;;;5031030;28;20042;-89
2023/10/12 21:54:33;;;;;;;10.52;7.72;;;;;;;;;;5049863;28;20044;-88
2023/10/12 21:57:09;;;;;;;8.73;7.18;;;;;;;;;;5029913;28;20060;-89
2023/10/12 21:59:37;;;;;;;12.05;8.48;;;;;;;;;;5028810;28;20057;-89
2023/10/12 22:02:12;;;;;;;9.88;7.40;;;;;;;;;;5032946;28;20060;-89
2023/10/12 22:04:45;;;;;;;8.00;6.90;;;;;;;;;;5014615;28;20056;-89
2023/10/12 22:07:14;;;;;;;23.55;8.45;;;;;;;;;;5008837;28;20068;-89
2023/10/12 22:09:45;;;;;;;11.77;7.13;;;;;;;;;;5015732;28;20041;-88
2023/10/12 22:12:19;;;;;;;11.43;7.55;;;;;;;;;;5014401;28;20049;-89
2023/10/12 22:14:59;;;;;;;8.88;6.13;;;;;;;;;;5050236;28;20055;-89
2023/10/12 22:17:29;;;;;;;8.00;6.40;;;;;;;;;;5019716;28;20075;-89
2023/10/12 22:19:57;;;;;;;6.82;5.25;;;;;;;;;;5017002;28;20044;-89
2023/10/12 22:22:25;;;;;;;9.27;7.93;;;;;;;;;;5014941;28;20057;-89
2023/10/12 22:24:52;;;;;;;10.65;6.85;;;;;;;;;;5033149;28;20388;-89
2023/10/12 22:27:21;;;;;;;7.65;5.63;;;;;;;;;;5016065;28;20053;-89
2023/10/12 22:29:53;;;;;;;7.57;6.00;;;;;;;;;;5025496;28;20057;-89
2023/10/12 22:32:25;;;;;;;7.43;6.70;;;;;;;;;;5011982;28;20057;-88
2023/10/12 22:34:52;;;;;;;8.32;6.13;;;;;;;;;;5032250;28;20052;-89
2023/10/12 22:37:21;;;;;;;8.07;5.15;;;;;;;;;;5003780;28;20049;-89
2023/10/12 22:39:50;;;;;;;7.05;6.38;;;;;;;;;;5010619;28;20053;-89
2023/10/12 22:42:21;;;;;;;11.35;6.32;;;;;;;;;;5016503;28;20060;-88
2023/10/12 22:44:49;;;;;;;7.05;6.32;;;;;;;;;;5009578;28;20053;-88
2023/10/12 22:47:16;;;;;;;8.68;6.72;;;;;;;;;;5011011;28;20048;-89
2023/10/12 22:49:47;;;;;;;16.17;6.97;;;;;;;;;;5038517;28;20060;-89
2023/10/12 22:52:18;;;;;;;10.55;6.55;;;;;;;;;;5026227;28;20053;-89
2023/10/12 22:54:45;;;;;;;10.65;7.35;;;;;;;;;;5045646;28;20045;-88
2023/10/12 22:57:13;;;;;;;8.35;7.50;;;;;;;;;;5032180;28;20072;-88
2023/10/12 22:59:42;;;;;;;10.50;7.22;;;;;;;;;;5027470;28;20045;-88
2023/10/12 23:02:11;;;;;;;8.48;6.93;;;;;;;;;;5015408;28;20063;-89
2023/10/12 23:04:41;;;;;;;12.88;7.95;;;;;;;;;;5031730;28;20103;-89
2023/10/12 23:07:10;;;;;;;8.32;6.97;;;;;;;;;;5032840;28;20056;-89
2023/10/12 23:09:41;;;;;;;10.15;6.65;;;;;;;;;;5014068;28;20519;-89
2023/10/12 23:12:12;;;;;;;11.27;7.18;;;;;;;;;;5032077;28;20128;-88
2023/10/12 23:14:44;;;;;;;8.75;7.55;;;;;;;;;;5026881;28;20049;-89
2023/10/12 23:17:20;;;;;;;9.30;7.00;;;;;;;;;;5026797;28;20056;-89
2023/10/12 23:19:57;;;;;;;11.32;7.45;;;;;;;;;;5045435;28;20068;-89
2023/10/12 23:22:33;;;;;;;7.20;6.25;;;;;;;;;;5034638;28;20064;-89
2023/10/12 23:25:05;;;;;;;7.72;7.00;;;;;;;;;;5031033;28;20412;-89
2023/10/12 23:27:33;;;;;;;12.63;6.80;;;;;;;;;;5047625;28;20052;-89